SKW9927 KORD-KMKE
Flight info
| Callsign | SKW9927 |
|---|---|
| Flight time | 0h 23m |
| Altitude | 11000 |
| Route | RAYNR BRTMN TAAYZ/N0345F100 |
| Aircraft | CRJ7/M-SDFGIRWY/S |
Departure
| Time | 2026-04-24 02:04 |
|---|---|
| Airport | Chicago O'Hare International Airport (KORD) |
Arrival
| Time | 2026-04-24 02:28 |
|---|---|
| Airport | General Mitchell International Airport (KMKE) |
| Time | Latitude | Longitude | Altitude | Speed | Heading |
|---|---|---|---|---|---|
| 2026-04-24 01:30 | 41.97673 | -87.90697 | 668 ft | 0 kts | 339° |
| 2026-04-24 01:51 | 41.97662 | -87.90694 | 668 ft | 2 kts | 5° |
| 2026-04-24 01:51 | 41.97647 | -87.90701 | 669 ft | 2 kts | 33° |
| 2026-04-24 01:52 | 41.97632 | -87.90711 | 669 ft | 2 kts | 348° |
| 2026-04-24 01:52 | 41.97622 | -87.90695 | 669 ft | 2 kts | 271° |
| 2026-04-24 01:52 | 41.97625 | -87.90679 | 669 ft | 1 kts | 248° |
| 2026-04-24 01:52 | 41.97625 | -87.90678 | 669 ft | 0 kts | 248° |
| 2026-04-24 01:56 | 41.97621 | -87.90692 | 659 ft | 4 kts | 248° |
| 2026-04-24 01:56 | 41.97606 | -87.90740 | 669 ft | 7 kts | 247° |
| 2026-04-24 01:57 | 41.97584 | -87.90820 | 670 ft | 11 kts | 251° |
| 2026-04-24 01:57 | 41.97553 | -87.90936 | 670 ft | 15 kts | 249° |
| 2026-04-24 01:57 | 41.97554 | -87.91071 | 668 ft | 16 kts | 330° |
| 2026-04-24 01:57 | 41.97658 | -87.91125 | 668 ft | 16 kts | 334° |
| 2026-04-24 01:58 | 41.97676 | -87.91172 | 668 ft | 1 kts | 210° |
| 2026-04-24 01:58 | 41.97648 | -87.91136 | 668 ft | 8 kts | 111° |
| 2026-04-24 01:58 | 41.97629 | -87.91059 | 669 ft | 10 kts | 99° |
| 2026-04-24 01:58 | 41.97653 | -87.90962 | 669 ft | 13 kts | 36° |
| 2026-04-24 01:59 | 41.97751 | -87.90924 | 667 ft | 17 kts | 8° |
| 2026-04-24 01:59 | 41.97879 | -87.90895 | 666 ft | 20 kts | 9° |
| 2026-04-24 01:59 | 41.98030 | -87.90862 | 662 ft | 23 kts | 9° |
| 2026-04-24 01:59 | 41.98146 | -87.90853 | 660 ft | 13 kts | 353° |
| 2026-04-24 02:00 | 41.98244 | -87.90860 | 660 ft | 15 kts | 21° |
| 2026-04-24 02:00 | 41.98283 | -87.90724 | 657 ft | 19 kts | 83° |
| 2026-04-24 02:00 | 41.98290 | -87.90533 | 656 ft | 21 kts | 90° |
| 2026-04-24 02:00 | 41.98290 | -87.90351 | 659 ft | 19 kts | 90° |
| 2026-04-24 02:01 | 41.98290 | -87.90166 | 659 ft | 21 kts | 89° |
| 2026-04-24 02:01 | 41.98290 | -87.89971 | 663 ft | 20 kts | 89° |
| 2026-04-24 02:01 | 41.98291 | -87.89798 | 665 ft | 18 kts | 89° |
| 2026-04-24 02:01 | 41.98298 | -87.89644 | 663 ft | 10 kts | 76° |
| 2026-04-24 02:02 | 41.98316 | -87.89532 | 663 ft | 13 kts | 57° |
| 2026-04-24 02:02 | 41.98331 | -87.89511 | 663 ft | 0 kts | 18° |
| 2026-04-24 02:03 | 41.98382 | -87.89489 | 663 ft | 0 kts | 18° |
| 2026-04-24 02:03 | 41.98394 | -87.89488 | 663 ft | 4 kts | 351° |
| 2026-04-24 02:03 | 41.98427 | -87.89547 | 664 ft | 23 kts | 276° |
| 2026-04-24 02:04 | 41.98387 | -87.90052 | 663 ft | 92 kts | 270° |
| 2026-04-24 02:04 | 41.98389 | -87.91231 | 664 ft | 157 kts | 270° |
| 2026-04-24 02:04 | 41.98404 | -87.92844 | 1086 ft | 178 kts | 269° |
| 2026-04-24 02:04 | 41.98489 | -87.94669 | 1665 ft | 216 kts | 269° |
| 2026-04-24 02:05 | 41.99057 | -87.96735 | 2429 ft | 246 kts | 298° |
| 2026-04-24 02:05 | 42.00318 | -87.98417 | 3589 ft | 265 kts | 321° |
| 2026-04-24 02:05 | 42.02098 | -87.99461 | 4106 ft | 306 kts | 342° |
| 2026-04-24 02:05 | 42.04345 | -87.99815 | 4541 ft | 343 kts | 354° |
| 2026-04-24 02:06 | 42.06887 | -87.99588 | 4859 ft | 381 kts | 8° |
| 2026-04-24 02:06 | 42.09463 | -87.98882 | 5911 ft | 380 kts | 18° |
| 2026-04-24 02:06 | 42.11804 | -87.97168 | 6535 ft | 391 kts | 34° |
| 2026-04-24 02:06 | 42.14101 | -87.95065 | 6806 ft | 407 kts | 34° |
| 2026-04-24 02:07 | 42.16441 | -87.93062 | 6931 ft | 390 kts | 31° |
| 2026-04-24 02:07 | 42.18788 | -87.91308 | 6962 ft | 387 kts | 27° |
| 2026-04-24 02:07 | 42.21198 | -87.89634 | 6984 ft | 392 kts | 27° |
| 2026-04-24 02:07 | 42.23619 | -87.87930 | 6987 ft | 392 kts | 27° |
| 2026-04-24 02:08 | 42.26005 | -87.86206 | 6998 ft | 386 kts | 28° |
| 2026-04-24 02:08 | 42.28358 | -87.84508 | 6997 ft | 381 kts | 28° |
| 2026-04-24 02:08 | 42.30691 | -87.82857 | 6989 ft | 377 kts | 24° |
| 2026-04-24 02:08 | 42.33196 | -87.81992 | 6982 ft | 370 kts | 5° |
| 2026-04-24 02:09 | 42.35748 | -87.81738 | 6994 ft | 366 kts | 0° |
| 2026-04-24 02:09 | 42.38282 | -87.81581 | 6989 ft | 364 kts | 0° |
| 2026-04-24 02:09 | 42.39950 | -87.81464 | 7001 ft | 362 kts | 1° |
| 2026-04-24 02:09 | 42.43302 | -87.81120 | 7010 ft | 361 kts | 2° |
| 2026-04-24 02:10 | 42.44993 | -87.80904 | 7012 ft | 360 kts | 3° |
| 2026-04-24 02:10 | 42.47481 | -87.80599 | 7013 ft | 358 kts | 1° |
| 2026-04-24 02:10 | 42.49960 | -87.80533 | 7001 ft | 356 kts | 355° |
| 2026-04-24 02:10 | 42.52427 | -87.80718 | 7000 ft | 354 kts | 353° |
| 2026-04-24 02:11 | 42.54875 | -87.80961 | 7015 ft | 353 kts | 353° |
| 2026-04-24 02:11 | 42.57329 | -87.81190 | 7018 ft | 353 kts | 353° |
| 2026-04-24 02:11 | 42.59774 | -87.81376 | 7023 ft | 352 kts | 354° |
| 2026-04-24 02:11 | 42.62220 | -87.81541 | 7023 ft | 352 kts | 354° |
| 2026-04-24 02:12 | 42.64664 | -87.81698 | 7022 ft | 351 kts | 354° |
| 2026-04-24 02:12 | 42.67112 | -87.81859 | 7035 ft | 354 kts | 354° |
| 2026-04-24 02:12 | 42.69593 | -87.82026 | 7035 ft | 359 kts | 354° |
| 2026-04-24 02:12 | 42.72092 | -87.82187 | 7044 ft | 362 kts | 354° |
| 2026-04-24 02:13 | 42.74629 | -87.82279 | 7034 ft | 366 kts | 360° |
| 2026-04-24 02:13 | 42.77179 | -87.81995 | 7042 ft | 370 kts | 4° |
| 2026-04-24 02:13 | 42.79744 | -87.81613 | 7029 ft | 372 kts | 4° |
| 2026-04-24 02:13 | 42.82319 | -87.81201 | 7034 ft | 374 kts | 5° |
| 2026-04-24 02:14 | 42.84905 | -87.80774 | 7031 ft | 375 kts | 5° |
| 2026-04-24 02:14 | 42.87532 | -87.80333 | 7028 ft | 376 kts | 5° |
| 2026-04-24 02:14 | 42.90137 | -87.79897 | 6997 ft | 377 kts | 5° |
| 2026-04-24 02:14 | 42.92705 | -87.79461 | 6996 ft | 366 kts | 5° |
| 2026-04-24 02:15 | 42.95193 | -87.79039 | 6975 ft | 356 kts | 5° |
| 2026-04-24 02:15 | 42.97611 | -87.78623 | 6724 ft | 343 kts | 5° |
| 2026-04-24 02:15 | 42.99936 | -87.78221 | 6475 ft | 331 kts | 5° |
| 2026-04-24 02:15 | 43.02183 | -87.77823 | 6225 ft | 321 kts | 5° |
| 2026-04-24 02:16 | 43.04376 | -87.77427 | 5873 ft | 315 kts | 5° |
| 2026-04-24 02:16 | 43.06532 | -87.77043 | 5509 ft | 310 kts | 5° |
| 2026-04-24 02:16 | 43.08655 | -87.76670 | 5150 ft | 306 kts | 5° |
| 2026-04-24 02:16 | 43.10754 | -87.76310 | 4802 ft | 303 kts | 5° |
| 2026-04-24 02:17 | 43.12835 | -87.75954 | 4460 ft | 299 kts | 5° |
| 2026-04-24 02:17 | 43.14884 | -87.75619 | 4218 ft | 293 kts | 5° |
| 2026-04-24 02:17 | 43.16867 | -87.75302 | 4103 ft | 281 kts | 5° |
| 2026-04-24 02:17 | 43.18768 | -87.75003 | 4041 ft | 268 kts | 5° |
| 2026-04-24 02:18 | 43.20579 | -87.74777 | 4007 ft | 254 kts | 354° |
| 2026-04-24 02:18 | 43.22134 | -87.75499 | 3995 ft | 224 kts | 312° |
| 2026-04-24 02:18 | 43.22898 | -87.77142 | 3999 ft | 194 kts | 267° |
| 2026-04-24 02:18 | 43.22615 | -87.78696 | 4031 ft | 156 kts | 218° |
| 2026-04-24 02:19 | 43.21767 | -87.79448 | 4035 ft | 140 kts | 207° |
| 2026-04-24 02:19 | 43.20934 | -87.80112 | 4020 ft | 140 kts | 207° |
| 2026-04-24 02:19 | 43.20058 | -87.80800 | 4101 ft | 143 kts | 207° |
| 2026-04-24 02:19 | 43.19260 | -87.81410 | 4101 ft | 118 kts | 206° |
| 2026-04-24 02:20 | 43.18509 | -87.81968 | 3741 ft | 132 kts | 206° |
| 2026-04-24 02:20 | 43.17659 | -87.82600 | 3332 ft | 146 kts | 206° |
| 2026-04-24 02:20 | 43.16754 | -87.83270 | 3084 ft | 148 kts | 206° |
| 2026-04-24 02:20 | 43.15866 | -87.83931 | 2961 ft | 139 kts | 206° |
| 2026-04-24 02:21 | 43.15072 | -87.84526 | 2878 ft | 121 kts | 205° |
| 2026-04-24 02:21 | 43.14358 | -87.85069 | 2822 ft | 119 kts | 206° |
| 2026-04-24 02:21 | 43.13630 | -87.85611 | 2812 ft | 118 kts | 204° |
| 2026-04-24 02:21 | 43.12843 | -87.85955 | 2810 ft | 118 kts | 194° |
| 2026-04-24 02:22 | 43.12031 | -87.86227 | 2817 ft | 120 kts | 193° |
| 2026-04-24 02:22 | 43.11235 | -87.86487 | 2810 ft | 115 kts | 192° |
| 2026-04-24 02:22 | 43.10470 | -87.86691 | 2791 ft | 109 kts | 190° |
| 2026-04-24 02:22 | 43.09752 | -87.86854 | 2770 ft | 97 kts | 189° |
| 2026-04-24 02:23 | 43.09097 | -87.86972 | 2724 ft | 99 kts | 189° |
| 2026-04-24 02:23 | 43.08384 | -87.87116 | 2784 ft | 111 kts | 190° |
| 2026-04-24 02:23 | 43.07585 | -87.87303 | 2826 ft | 118 kts | 189° |
| 2026-04-24 02:23 | 43.06788 | -87.87442 | 2811 ft | 113 kts | 187° |
| 2026-04-24 02:24 | 43.05994 | -87.87562 | 2733 ft | 121 kts | 187° |
| 2026-04-24 02:24 | 43.05118 | -87.87696 | 2537 ft | 133 kts | 188° |
| 2026-04-24 02:24 | 43.04169 | -87.87861 | 2349 ft | 142 kts | 188° |
| 2026-04-24 02:24 | 43.03223 | -87.88043 | 2150 ft | 131 kts | 187° |
| 2026-04-24 02:25 | 43.02363 | -87.88175 | 1938 ft | 116 kts | 186° |
| 2026-04-24 02:25 | 43.01641 | -87.88288 | 1757 ft | 97 kts | 186° |
| 2026-04-24 02:25 | 43.00944 | -87.88396 | 1632 ft | 104 kts | 186° |
| 2026-04-24 02:25 | 43.00205 | -87.88539 | 1614 ft | 114 kts | 187° |
| 2026-04-24 02:26 | 42.99413 | -87.88721 | 1699 ft | 115 kts | 187° |
| 2026-04-24 02:26 | 42.98633 | -87.88810 | 1450 ft | 112 kts | 186° |
| 2026-04-24 02:26 | 42.97776 | -87.88968 | 1211 ft | 134 kts | 183° |
| 2026-04-24 02:26 | 42.96852 | -87.89121 | 1022 ft | 132 kts | 186° |
| 2026-04-24 02:27 | 42.95939 | -87.89270 | 805 ft | 134 kts | 187° |
| 2026-04-24 02:27 | 42.95002 | -87.89432 | 687 ft | 128 kts | 187° |
| 2026-04-24 02:27 | 42.94290 | -87.89555 | 686 ft | 81 kts | 187° |
| 2026-04-24 02:27 | 42.93815 | -87.89632 | 683 ft | 60 kts | 187° |
| 2026-04-24 02:28 | 42.93546 | -87.89737 | 683 ft | 19 kts | 253° |
| 2026-04-24 02:28 | 42.93554 | -87.89817 | 684 ft | 0 kts | 284° |
| 2026-04-24 02:28 | 42.93555 | -87.89822 | 685 ft | 2 kts | 284° |
| 2026-04-24 02:29 | 42.93578 | -87.89876 | 684 ft | 11 kts | 322° |
| 2026-04-24 02:29 | 42.93679 | -87.89891 | 686 ft | 19 kts | 0° |